Time;durP1;ratioP1;P1;durP2;ratioP2;P2;SDS_P1;SDS_P2;PMS_P1;PMS_P2;Temp;Humidity;BMP_temperature;BMP_pressure;BME280_temperature;BME280_humidity;BME280_pressure;Samples;Min_cycle;Max_cycle;Signal;HPM_P1;HPM_P2
2022/06/27 00:21:37;;;;;;;;;;;23.90;76.30;;;;;;5923240;22;19975;-96
2022/06/27 00:24:05;;;;;;;;;;;23.90;76.50;;;;;;5037772;28;20009;-96
2022/06/27 00:26:31;;;;;;;;;;;23.90;76.80;;;;;;5032971;28;19940;-96
2022/06/27 00:28:57;;;;;;;;;;;23.80;76.80;;;;;;5039054;28;19953;-96
2022/06/27 00:31:27;;;;;;;;;;;23.90;76.90;;;;;;5056541;28;19947;-96
2022/06/27 00:33:56;;;;;;;;;;;23.90;76.80;;;;;;5042829;28;19964;-96
2022/06/27 00:37:02;;;;;;;;;;;23.90;76.30;;;;;;5060723;28;19933;-96
2022/06/27 00:44:44;;;;;;;;;;;23.90;76.00;;;;;;5573175;23;19966;-96
2022/06/27 00:47:12;;;;;;;;;;;24.00;76.00;;;;;;5000918;28;19939;-96
2022/06/27 00:52:23;;;;;;;;;;;23.90;76.80;;;;;;5107153;22;19980;-96
2022/06/27 01:20:18;;;;;;;;;;;23.30;79.40;;;;;;5719439;23;20048;-96
2022/06/27 01:22:48;;;;;;;;;;;23.30;79.60;;;;;;5040061;28;20007;-96
2022/06/27 01:25:37;;;;;;;;;;;23.20;79.50;;;;;;5025735;28;19977;-96
2022/06/27 01:28:09;;;;;;;;;;;23.20;79.60;;;;;;5025914;28;19933;-96
2022/06/27 01:30:37;;;;;;;;;;;23.10;79.80;;;;;;5042298;28;19962;-96
2022/06/27 01:33:03;;;;;;;;;;;23.10;79.70;;;;;;5038439;28;19962;-96
2022/06/27 01:35:29;;;;;;;;;;;23.00;79.40;;;;;;5036851;28;19962;-96
2022/06/27 01:37:55;;;;;;;;;;;23.10;79.10;;;;;;5036921;28;19946;-96
2022/06/27 01:40:21;;;;;;;;;;;23.10;78.90;;;;;;5035910;28;19940;-96
2022/06/27 01:42:47;;;;;;;;;;;23.10;78.70;;;;;;5035805;28;19937;-96
2022/06/27 01:45:13;;;;;;;;;;;23.20;78.20;;;;;;5039733;28;19931;-96
2022/06/27 01:47:40;;;;;;;;;;;23.30;77.80;;;;;;5040844;28;19966;-96
2022/06/27 01:50:14;;;;;;;;;;;23.30;77.50;;;;;;5058709;28;19953;-96
2022/06/27 01:52:42;;;;;;;;;;;23.30;77.20;;;;;;5041406;28;19972;-96
2022/06/27 01:55:21;;;;;;;;;;;23.30;77.10;;;;;;5058690;28;19946;-96
2022/06/27 01:57:54;;;;;;;;;;;23.40;77.00;;;;;;5058219;28;19953;-96
2022/06/27 02:00:30;;;;;;;;;;;23.40;76.80;;;;;;5057478;28;19952;-96
2022/06/27 02:03:00;;;;;;;;;;;23.40;76.80;;;;;;5058056;28;19970;-96
2022/06/27 02:05:28;;;;;;;;;;;23.50;76.70;;;;;;5040704;28;19953;-96
2022/06/27 02:07:57;;;;;;;;;;;23.50;76.60;;;;;;5058160;28;19945;-96
2022/06/27 02:10:25;;;;;;;;;;;23.50;76.60;;;;;;5040376;28;19950;-96
2022/06/27 02:12:52;;;;;;;;;;;23.50;76.50;;;;;;5040044;28;19970;-97
2022/06/27 02:15:19;;;;;;;;;;;23.50;76.50;;;;;;5058194;28;19961;-96
2022/06/27 02:17:46;;;;;;;;;;;23.50;76.70;;;;;;5040340;28;20016;-96
2022/06/27 02:20:16;;;;;;;;;;;23.50;76.50;;;;;;5040010;28;19951;-96
2022/06/27 02:22:49;;;;;;;;;;;23.50;76.50;;;;;;5040475;28;19946;-96
2022/06/27 02:25:19;;;;;;;;;;;23.50;76.50;;;;;;5040446;28;19967;-96
2022/06/27 02:27:48;;;;;;;;;;;23.50;76.50;;;;;;5023066;28;19957;-96
2022/06/27 02:30:16;;;;;;;;;;;23.50;76.70;;;;;;5040227;28;19930;-96
2022/06/27 02:32:44;;;;;;;;;;;23.50;76.70;;;;;;5040533;28;19984;-96
2022/06/27 02:35:12;;;;;;;;;;;23.40;76.80;;;;;;5036396;28;19971;-96
2022/06/27 02:37:44;;;;;;;;;;;23.50;77.00;;;;;;5036056;28;19946;-96
2022/06/27 02:40:12;;;;;;;;;;;23.40;77.20;;;;;;5040627;28;19952;-96
2022/06/27 02:42:39;;;;;;;;;;;23.40;77.20;;;;;;5040173;28;19954;-96
2022/06/27 02:45:06;;;;;;;;;;;23.40;77.40;;;;;;5036523;28;19935;-96
2022/06/27 02:47:34;;;;;;;;;;;23.40;77.50;;;;;;5036023;28;20367;-96
2022/06/27 02:50:00;;;;;;;;;;;23.40;77.60;;;;;;5036019;28;19944;-96
2022/06/27 02:52:38;;;;;;;;;;;23.40;77.60;;;;;;5035126;28;19948;-96
2022/06/27 02:55:09;;;;;;;;;;;23.40;77.60;;;;;;5035352;28;19936;-96
2022/06/27 02:57:45;;;;;;;;;;;23.40;77.60;;;;;;5038891;28;19965;-96
2022/06/27 03:00:14;;;;;;;;;;;23.40;77.70;;;;;;5039006;28;19948;-96
2022/06/27 03:02:45;;;;;;;;;;;23.30;77.90;;;;;;5056092;28;19950;-96
2022/06/27 03:05:18;;;;;;;;;;;23.30;78.00;;;;;;5038900;28;20405;-96
2022/06/27 03:07:48;;;;;;;;;;;23.30;78.30;;;;;;5039100;28;20033;-96
2022/06/27 03:10:16;;;;;;;;;;;23.20;78.50;;;;;;5022753;28;19947;-96
2022/06/27 03:32:40;;;;;;;;;;;23.70;77.40;;;;;;6140125;23;20066;31
2022/06/27 03:35:24;;;;;;;;;;;23.70;77.70;;;;;;4981270;28;19951;-96
2022/06/27 03:37:59;;;;;;;;;;;23.70;77.80;;;;;;4980465;29;19960;-96
2022/06/27 03:40:27;;;;;;;;;;;23.60;77.80;;;;;;4985881;28;20012;-96
2022/06/27 03:43:00;;;;;;;;;;;23.60;78.10;;;;;;5002031;28;19949;-96
2022/06/27 03:45:29;;;;;;;;;;;23.60;77.90;;;;;;4984820;28;19944;-96
2022/06/27 03:47:59;;;;;;;;;;;23.60;78.00;;;;;;4984620;28;19978;-96
2022/06/27 03:50:28;;;;;;;;;;;23.60;78.00;;;;;;4985401;28;19974;-96
2022/06/27 03:52:56;;;;;;;;;;;23.70;77.70;;;;;;4984685;28;19985;-96
2022/06/27 03:57:59;;;;;;;;;;;23.70;77.30;;;;;;5830053;23;19975;-96
2022/06/27 04:00:31;;;;;;;;;;;23.80;77.60;;;;;;5025185;28;19974;-96
2022/06/27 04:02:59;;;;;;;;;;;23.70;77.90;;;;;;5058086;28;19951;-96
2022/06/27 04:05:28;;;;;;;;;;;23.50;78.50;;;;;;5057230;28;19943;-96
2022/06/27 04:07:54;;;;;;;;;;;23.40;78.80;;;;;;5039694;28;20011;-96
2022/06/27 04:10:20;;;;;;;;;;;23.30;78.90;;;;;;5040425;28;19954;-96
2022/06/27 04:12:46;;;;;;;;;;;23.30;79.10;;;;;;5039839;28;19985;-96
2022/06/27 04:15:13;;;;;;;;;;;23.30;79.30;;;;;;5060422;28;19927;-96
2022/06/27 04:17:56;;;;;;;;;;;23.30;79.60;;;;;;5061096;28;20011;-96
2022/06/27 04:20:24;;;;;;;;;;;23.30;79.50;;;;;;5044226;28;19996;-96
2022/06/27 04:41:06;;;;;;;;;;;23.80;79.20;;;;;;4542606;23;19974;-96
2022/06/27 04:43:43;;;;;;;;;;;23.80;79.20;;;;;;5041286;28;20020;-96
2022/06/27 04:46:19;;;;;;;;;;;23.90;79.00;;;;;;5041037;28;19944;-96
2022/06/27 04:48:56;;;;;;;;;;;24.00;78.10;;;;;;5020526;28;19937;-96
2022/06/27 04:51:32;;;;;;;;;;;24.10;77.40;;;;;;4983159;28;19969;-96
2022/06/27 04:53:58;;;;;;;;;;;24.20;77.20;;;;;;5016762;28;20106;-96
2022/06/27 04:56:27;;;;;;;;;;;24.30;77.30;;;;;;5016200;28;19976;-96
2022/06/27 04:58:56;;;;;;;;;;;24.30;77.50;;;;;;5000662;28;19935;-96
2022/06/27 05:01:25;;;;;;;;;;;24.30;77.00;;;;;;4986525;28;19981;-96
2022/06/27 05:03:53;;;;;;;;;;;24.30;76.70;;;;;;5002413;28;19932;-96
2022/06/27 05:06:21;;;;;;;;;;;24.40;76.70;;;;;;5003198;28;19929;-96
2022/06/27 05:08:56;;;;;;;;;;;24.40;76.90;;;;;;5017899;28;19950;-96
2022/06/27 05:11:22;;;;;;;;;;;24.40;76.80;;;;;;4994556;28;20057;-96
2022/06/27 05:13:47;;;;;;;;;;;24.50;76.50;;;;;;5005943;28;20005;-96
2022/06/27 05:16:15;;;;;;;;;;;24.50;76.30;;;;;;4988732;28;19953;-96
2022/06/27 05:18:41;;;;;;;;;;;24.60;76.20;;;;;;5005655;28;19947;-96
2022/06/27 05:21:08;;;;;;;;;;;24.70;75.70;;;;;;4988502;28;19949;-96
2022/06/27 05:23:36;;;;;;;;;;;24.70;75.90;;;;;;5004605;28;19946;-96
2022/06/27 05:26:02;;;;;;;;;;;24.80;75.30;;;;;;5003874;28;19961;-96
2022/06/27 05:28:28;;;;;;;;;;;24.90;75.20;;;;;;5009048;28;19940;-96
2022/06/27 05:30:53;;;;;;;;;;;24.90;74.90;;;;;;4991873;28;19946;-96
2022/06/27 05:33:19;;;;;;;;;;;25.00;74.90;;;;;;5006246;28;19965;-96
2022/06/27 05:35:45;;;;;;;;;;;25.00;74.70;;;;;;4990192;28;19954;-96
2022/06/27 05:38:11;;;;;;;;;;;25.10;74.50;;;;;;4994806;28;19997;-96
2022/06/27 05:40:37;;;;;;;;;;;25.20;74.40;;;;;;5026690;28;19981;-96
2022/06/27 05:43:03;;;;;;;;;;;25.20;74.10;;;;;;5007797;28;19969;-96
2022/06/27 05:45:29;;;;;;;;;;;25.30;74.00;;;;;;5023892;28;19939;-96
2022/06/27 05:47:59;;;;;;;;;;;25.30;73.90;;;;;;5027858;28;19969;-96
2022/06/27 05:50:25;;;;;;;;;;;25.30;73.90;;;;;;5025550;28;20401;-96
2022/06/27 05:52:52;;;;;;;;;;;25.40;74.70;;;;;;5024307;28;20371;-96
2022/06/27 05:55:19;;;;;;;;;;;25.50;74.40;;;;;;5007150;28;20395;-96
2022/06/27 05:57:44;;;;;;;;;;;25.50;74.50;;;;;;5007126;28;20427;-96
2022/06/27 06:00:11;;;;;;;;;;;25.50;74.60;;;;;;5025952;28;19938;-96
2022/06/27 06:02:37;;;;;;;;;;;25.60;73.80;;;;;;5005996;28;19949;-96
2022/06/27 06:05:04;;;;;;;;;;;25.70;73.30;;;;;;5001247;28;20404;-96
2022/06/27 06:07:30;;;;;;;;;;;25.80;72.80;;;;;;5001432;28;19945;-96
2022/06/27 06:09:55;;;;;;;;;;;25.90;72.50;;;;;;5019297;28;20374;-96
2022/06/27 06:12:21;;;;;;;;;;;26.00;72.00;;;;;;5020412;28;20388;-96
2022/06/27 06:14:47;;;;;;;;;;;26.00;71.60;;;;;;5020945;28;20051;-96
2022/06/27 06:17:13;;;;;;;;;;;26.10;71.60;;;;;;5021101;28;20382;-96
2022/06/27 06:19:39;;;;;;;;;;;26.20;71.30;;;;;;5010328;28;19968;-96
2022/06/27 06:22:05;;;;;;;;;;;26.20;71.10;;;;;;5014005;28;19950;-96
2022/06/27 06:24:31;;;;;;;;;;;26.30;71.00;;;;;;5034222;28;19941;-96
2022/06/27 06:27:00;;;;;;;;;;;26.30;71.20;;;;;;5017068;28;19971;-96
2022/06/27 06:29:29;;;;;;;;;;;26.30;71.50;;;;;;5035159;28;20011;-96
2022/06/27 06:31:55;;;;;;;;;;;26.40;71.50;;;;;;5034809;28;19947;-96
2022/06/27 06:34:25;;;;;;;;;;;26.50;72.00;;;;;;5018662;28;19946;-96
2022/06/27 06:36:52;;;;;;;;;;;26.50;72.00;;;;;;5010680;28;19968;-96
2022/06/27 06:39:19;;;;;;;;;;;26.60;71.40;;;;;;5036571;28;19943;-96
2022/06/27 06:41:49;;;;;;;;;;;26.60;70.70;;;;;;5019372;28;19957;-96
2022/06/27 06:44:17;;;;;;;;;;;26.70;71.30;;;;;;5019245;28;20010;-96
2022/06/27 06:46:49;;;;;;;;;;;26.70;71.00;;;;;;5019592;28;20047;-96
2022/06/27 06:49:16;;;;;;;;;;;26.70;71.00;;;;;;5019292;28;19939;-96
2022/06/27 06:51:44;;;;;;;;;;;26.80;71.20;;;;;;5019019;28;19940;-96
2022/06/27 06:54:15;;;;;;;;;;;26.80;71.10;;;;;;5016601;28;19941;-96
2022/06/27 06:56:41;;;;;;;;;;;26.90;70.40;;;;;;5031575;28;19954;-96
2022/06/27 06:59:10;;;;;;;;;;;26.90;70.60;;;;;;5014123;28;20463;-96
2022/06/27 07:01:37;;;;;;;;;;;27.00;70.70;;;;;;5032165;28;19936;-96
2022/06/27 07:04:03;;;;;;;;;;;27.20;69.60;;;;;;5031749;28;20463;-96
2022/06/27 07:06:33;;;;;;;;;;;27.20;69.90;;;;;;5014363;28;19950;-96
2022/06/27 07:09:00;;;;;;;;;;;27.30;68.30;;;;;;5015784;28;19964;-96
2022/06/27 07:11:37;;;;;;;;;;;27.30;66.90;;;;;;5035359;28;19943;-96
2022/06/27 07:14:05;;;;;;;;;;;27.40;66.50;;;;;;5019035;28;19995;-96
2022/06/27 07:16:32;;;;;;;;;;;27.50;66.30;;;;;;5018389;28;19931;-96
2022/06/27 07:19:01;;;;;;;;;;;27.50;66.00;;;;;;5035582;28;19938;-96
2022/06/27 07:21:31;;;;;;;;;;;27.60;67.10;;;;;;5035470;28;19947;-96
2022/06/27 07:24:01;;;;;;;;;;;27.70;66.60;;;;;;5016458;28;19964;-96
2022/06/27 07:26:31;;;;;;;;;;;27.70;65.20;;;;;;5034724;28;19970;-96
2022/06/27 07:28:57;;;;;;;;;;;27.80;65.10;;;;;;5018445;28;19948;-96
2022/06/27 07:31:25;;;;;;;;;;;27.80;65.20;;;;;;5017986;28;19967;-96
2022/06/27 07:33:58;;;;;;;;;;;27.80;63.80;;;;;;5001201;28;19988;-96
2022/06/27 07:36:28;;;;;;;;;;;28.00;63.60;;;;;;5017910;28;19944;-96
2022/06/27 07:38:54;;;;;;;;;;;28.10;63.90;;;;;;5035098;28;19977;-96
2022/06/27 07:41:24;;;;;;;;;;;28.20;63.50;;;;;;5017642;28;19975;-96
2022/06/27 07:43:51;;;;;;;;;;;28.20;62.80;;;;;;5016986;28;20399;-96
2022/06/27 07:46:20;;;;;;;;;;;28.30;62.90;;;;;;5016831;28;19949;-96
2022/06/27 07:48:47;;;;;;;;;;;28.30;63.10;;;;;;5016493;28;19933;-96
2022/06/27 07:51:19;;;;;;;;;;;28.30;62.30;;;;;;5033734;28;19942;-96
2022/06/27 07:54:01;;;;;;;;;;;28.40;61.80;;;;;;5030049;28;20029;-96
2022/06/27 07:56:27;;;;;;;;;;;28.40;60.30;;;;;;5015606;28;19945;-96
2022/06/27 07:58:54;;;;;;;;;;;28.60;58.70;;;;;;5017593;28;19947;-96
2022/06/27 08:01:23;;;;;;;;;;;28.70;60.00;;;;;;5019333;28;19939;-96
2022/06/27 08:03:54;;;;;;;;;;;28.70;59.90;;;;;;5021221;28;19935;-96
2022/06/27 08:06:27;;;;;;;;;;;28.80;59.30;;;;;;5020464;28;19956;-96
2022/06/27 08:08:55;;;;;;;;;;;28.80;57.40;;;;;;5023884;28;19955;-96
2022/06/27 08:11:26;;;;;;;;;;;28.90;59.30;;;;;;5023994;28;19941;-96
2022/06/27 08:14:03;;;;;;;;;;;29.00;57.70;;;;;;5023881;28;19979;-96
2022/06/27 08:16:31;;;;;;;;;;;29.10;55.80;;;;;;5023757;28;19934;-96
2022/06/27 08:19:00;;;;;;;;;;;29.20;54.40;;;;;;5023536;28;19968;-96
2022/06/27 08:21:34;;;;;;;;;;;29.30;53.60;;;;;;5039011;28;19926;-96
2022/06/27 08:24:02;;;;;;;;;;;29.40;54.10;;;;;;5021591;28;19955;-97
2022/06/27 08:26:31;;;;;;;;;;;29.50;54.10;;;;;;5021905;28;19960;-96
2022/06/27 08:29:00;;;;;;;;;;;29.50;52.10;;;;;;5038896;28;20010;-96
2022/06/27 08:31:33;;;;;;;;;;;29.70;52.20;;;;;;5005854;28;19946;-96
2022/06/27 08:34:01;;;;;;;;;;;29.70;51.70;;;;;;5022023;28;19990;-96
2022/06/27 08:36:31;;;;;;;;;;;29.80;51.80;;;;;;5021099;28;19946;-96
2022/06/27 08:39:01;;;;;;;;;;;29.90;50.50;;;;;;5039035;28;19925;-96
2022/06/27 08:41:29;;;;;;;;;;;30.00;49.80;;;;;;5021466;28;19973;-96
2022/06/27 08:43:58;;;;;;;;;;;30.10;49.80;;;;;;5017998;28;19946;-96
2022/06/27 08:46:24;;;;;;;;;;;30.00;49.90;;;;;;5017860;28;19952;-96
2022/06/27 08:48:50;;;;;;;;;;;30.10;49.20;;;;;;5016084;28;19955;-96
2022/06/27 08:51:18;;;;;;;;;;;30.20;49.30;;;;;;5017712;28;19946;-96
2022/06/27 08:53:44;;;;;;;;;;;30.20;49.90;;;;;;5016171;28;20027;-96
2022/06/27 08:56:12;;;;;;;;;;;30.40;49.60;;;;;;5017644;28;19977;-96
2022/06/27 08:58:39;;;;;;;;;;;30.50;48.80;;;;;;5031046;28;19967;-96
2022/06/27 09:01:06;;;;;;;;;;;30.60;49.60;;;;;;5014806;28;19974;-96
2022/06/27 09:03:32;;;;;;;;;;;30.80;48.90;;;;;;5013071;28;19939;-96
2022/06/27 09:05:59;;;;;;;;;;;30.80;48.60;;;;;;5034623;28;19946;-96
2022/06/27 09:08:28;;;;;;;;;;;31.00;49.60;;;;;;5018009;28;19929;-96
2022/06/27 09:10:55;;;;;;;;;;;31.10;48.50;;;;;;5034971;28;19976;-96
2022/06/27 09:13:26;;;;;;;;;;;31.10;48.00;;;;;;5018359;28;19977;-96
2022/06/27 09:16:04;;;;;;;;;;;31.20;48.10;;;;;;5018583;28;19959;-96
2022/06/27 09:18:36;;;;;;;;;;;31.30;48.80;;;;;;5017873;28;20012;-96
2022/06/27 09:21:03;;;;;;;;;;;31.40;46.30;;;;;;5017947;28;19955;-96
2022/06/27 09:23:45;;;;;;;;;;;31.40;47.50;;;;;;5018182;28;19944;-96
2022/06/27 09:26:14;;;;;;;;;;;31.50;45.50;;;;;;5016869;28;20031;-96
2022/06/27 09:28:41;;;;;;;;;;;31.60;44.40;;;;;;5032893;28;19941;-96
2022/06/27 09:31:11;;;;;;;;;;;31.60;44.90;;;;;;5014094;28;19943;-96
2022/06/27 09:33:38;;;;;;;;;;;31.70;43.30;;;;;;5019071;28;19975;-96
2022/06/27 09:36:10;;;;;;;;;;;31.80;45.80;;;;;;5018675;28;19971;-96
2022/06/27 09:38:39;;;;;;;;;;;31.90;44.50;;;;;;5015485;28;19941;-96
2022/06/27 09:41:06;;;;;;;;;;;31.80;47.60;;;;;;5012004;28;19981;-96
2022/06/27 09:43:33;;;;;;;;;;;31.90;42.90;;;;;;5012053;28;19940;-96
2022/06/27 09:45:58;;;;;;;;;;;31.90;43.20;;;;;;5012300;28;19949;-96
2022/06/27 09:48:26;;;;;;;;;;;32.00;42.00;;;;;;5011598;28;19947;-96
2022/06/27 09:50:52;;;;;;;;;;;32.10;42.50;;;;;;5014557;28;19949;-96
2022/06/27 09:53:18;;;;;;;;;;;32.10;41.70;;;;;;5017542;28;19976;-96
2022/06/27 09:55:46;;;;;;;;;;;32.20;40.20;;;;;;5019155;28;19951;-96
2022/06/27 09:58:12;;;;;;;;;;;32.30;39.10;;;;;;5020092;28;19942;-96
2022/06/27 10:00:40;;;;;;;;;;;32.40;38.40;;;;;;5017901;28;19947;-96
2022/06/27 10:03:06;;;;;;;;;;;32.50;38.90;;;;;;5001602;28;19950;-96
2022/06/27 10:05:34;;;;;;;;;;;32.60;38.70;;;;;;5018066;28;20034;-96
2022/06/27 10:08:04;;;;;;;;;;;32.70;41.00;;;;;;5018138;28;19960;-96
2022/06/27 10:10:53;;;;;;;;;;;32.80;40.00;;;;;;5017963;28;21652;-96
2022/06/27 10:13:18;;;;;;;;;;;32.90;39.10;;;;;;5016552;28;19966;-96
2022/06/27 10:15:47;;;;;;;;;;;33.10;39.60;;;;;;5017518;28;20383;-96
2022/06/27 10:18:13;;;;;;;;;;;33.20;36.90;;;;;;5016766;28;19972;-96
2022/06/27 10:20:39;;;;;;;;;;;33.20;35.40;;;;;;5015970;28;19994;-96
2022/06/27 10:23:11;;;;;;;;;;;33.20;36.60;;;;;;5016996;28;19937;-96
2022/06/27 10:25:38;;;;;;;;;;;33.40;35.80;;;;;;5017340;28;19955;-96
2022/06/27 10:28:13;;;;;;;;;;;33.50;35.70;;;;;;5017269;28;19999;-96
2022/06/27 10:30:56;;;;;;;;;;;33.60;35.90;;;;;;5018040;28;19936;-96
2022/06/27 10:33:24;;;;;;;;;;;33.60;34.90;;;;;;5016431;28;19959;-96
2022/06/27 10:35:59;;;;;;;;;;;33.10;35.10;;;;;;5018303;28;19945;-96
2022/06/27 10:38:26;;;;;;;;;;;33.10;36.00;;;;;;5018298;28;19939;-95
2022/06/27 10:40:54;;;;;;;;;;;33.20;37.50;;;;;;5018765;28;19973;-95
2022/06/27 10:43:37;;;;;;;;;;;33.30;37.60;;;;;;5019032;28;19946;-95
2022/06/27 10:46:09;;;;;;;;;;;33.50;36.80;;;;;;5016661;28;20033;-96
2022/06/27 10:48:39;;;;;;;;;;;33.60;37.30;;;;;;5015291;28;19943;-95
2022/06/27 10:51:26;;;;;;;;;;;33.60;37.00;;;;;;5014929;28;19977;-96
2022/06/27 10:54:09;;;;;;;;;;;33.50;36.40;;;;;;5014968;28;19957;-96
2022/06/27 10:56:41;;;;;;;;;;;33.40;35.50;;;;;;5014682;28;19979;-96
2022/06/27 10:59:13;;;;;;;;;;;33.60;35.50;;;;;;5015537;28;19948;-96
2022/06/27 11:01:40;;;;;;;;;;;33.70;36.10;;;;;;5014627;28;19949;-96
2022/06/27 11:04:06;;;;;;;;;;;33.70;34.90;;;;;;4996931;28;20397;-96
2022/06/27 11:06:32;;;;;;;;;;;33.90;34.90;;;;;;4996929;28;19945;-96
2022/06/27 11:08:57;;;;;;;;;;;34.20;37.00;;;;;;5014913;28;20405;-96
2022/06/27 11:11:25;;;;;;;;;;;34.20;35.60;;;;;;5014779;28;19943;-96
2022/06/27 11:13:52;;;;;;;;;;;34.40;37.60;;;;;;4996806;28;20342;-96
2022/06/27 11:16:19;;;;;;;;;;;34.60;36.10;;;;;;5014690;28;20028;-96
2022/06/27 11:21:55;;;;;;;;;;;34.80;34.80;;;;;;5014579;28;20466;-96
2022/06/27 11:24:21;;;;;;;;;;;35.00;36.70;;;;;;5014995;28;19981;-96
2022/06/27 11:26:47;;;;;;;;;;;35.20;37.80;;;;;;5015029;28;20421;-96
2022/06/27 11:32:15;;;;;;;;;;;35.10;36.00;;;;;;5018343;28;19983;-96
2022/06/27 11:34:48;;;;;;;;;;;35.10;34.80;;;;;;5003948;28;20015;-96
2022/06/27 11:37:23;;;;;;;;;;;35.20;35.20;;;;;;5024011;28;19938;-96
2022/06/27 11:45:49;;;;;;;;;;;35.40;34.30;;;;;;5455353;22;20072;-96
2022/06/27 11:48:16;;;;;;;;;;;35.60;32.50;;;;;;5012312;28;19950;-96
2022/06/27 11:50:42;;;;;;;;;;;35.80;31.70;;;;;;5011036;28;19974;-96
2022/06/27 11:53:08;;;;;;;;;;;36.00;31.00;;;;;;5011946;28;19967;-96
2022/06/27 11:55:34;;;;;;;;;;;36.20;31.30;;;;;;5016142;28;19952;-96
2022/06/27 11:58:00;;;;;;;;;;;36.30;31.20;;;;;;5015003;28;19952;-96
2022/06/27 12:00:27;;;;;;;;;;;36.60;31.40;;;;;;5014886;28;19945;-96
2022/06/27 12:03:07;;;;;;;;;;;36.70;30.50;;;;;;5013198;28;19953;-96
2022/06/27 12:08:20;;;;;;;;;;;37.20;31.50;;;;;;5268872;23;19985;-96
2022/06/27 12:13:31;;;;;;;;;;;37.30;31.20;;;;;;5005686;28;19964;-96
2022/06/27 12:16:04;;;;;;;;;;;37.60;30.70;;;;;;5414495;22;19969;-96
2022/06/27 12:18:33;;;;;;;;;;;37.80;29.20;;;;;;5005561;28;20050;-96
2022/06/27 12:20:59;;;;;;;;;;;38.00;29.50;;;;;;5020687;28;19942;-96
2022/06/27 12:23:24;;;;;;;;;;;37.90;29.60;;;;;;5021567;28;19948;-96
2022/06/27 12:25:50;;;;;;;;;;;37.70;31.90;;;;;;5008453;28;20387;-96
2022/06/27 12:28:16;;;;;;;;;;;37.80;29.70;;;;;;5007236;28;19946;-96
2022/06/27 12:30:41;;;;;;;;;;;38.00;30.50;;;;;;5024986;28;19985;-96
2022/06/27 12:33:07;;;;;;;;;;;38.10;29.00;;;;;;5021048;28;19972;-96
2022/06/27 12:35:33;;;;;;;;;;;37.90;28.60;;;;;;5020771;28;19942;-96
2022/06/27 12:38:02;;;;;;;;;;;37.90;29.90;;;;;;5020178;28;19937;-96
2022/06/27 12:40:28;;;;;;;;;;;37.70;29.10;;;;;;5020508;28;19941;-96
2022/06/27 12:42:54;;;;;;;;;;;38.10;29.60;;;;;;5002836;28;19950;-96
2022/06/27 12:45:19;;;;;;;;;;;38.30;29.10;;;;;;5002887;28;19960;-96
2022/06/27 12:47:45;;;;;;;;;;;38.80;28.70;;;;;;5021672;28;19945;-96
2022/06/27 12:50:11;;;;;;;;;;;39.20;27.80;;;;;;5023526;28;19941;-96
2022/06/27 12:52:37;;;;;;;;;;;39.50;27.90;;;;;;5339247;23;20072;-96
2022/06/27 12:55:07;;;;;;;;;;;39.80;28.10;;;;;;5021003;28;19942;-96
2022/06/27 12:57:40;;;;;;;;;;;40.10;26.90;;;;;;5006111;28;19960;-97
2022/06/27 13:13:01;;;;;;;;;;;40.60;27.70;;;;;;5030300;28;19974;-96
2022/06/27 13:15:29;;;;;;;;;;;40.90;26.10;;;;;;5032652;28;19977;-96
2022/06/27 13:17:55;;;;;;;;;;;41.00;27.80;;;;;;5032529;28;19943;-96
2022/06/27 13:23:04;;;;;;;;;;;40.70;26.30;;;;;;5397638;22;19985;-96
2022/06/27 13:25:30;;;;;;;;;;;40.70;28.00;;;;;;5013462;28;19948;-96
2022/06/27 13:27:57;;;;;;;;;;;40.70;27.50;;;;;;5019133;28;19960;-96
2022/06/27 13:30:34;;;;;;;;;;;41.50;27.70;;;;;;5022132;28;19981;-96
2022/06/27 13:33:03;;;;;;;;;;;42.10;27.30;;;;;;5037575;28;19940;-96
2022/06/27 13:35:33;;;;;;;;;;;42.80;24.60;;;;;;5341279;23;20038;-96
2022/06/27 13:38:06;;;;;;;;;;;43.70;23.30;;;;;;5022674;28;19933;-96
2022/06/27 13:40:39;;;;;;;;;;;44.30;23.30;;;;;;5001947;28;19950;-96
2022/06/27 13:43:08;;;;;;;;;;;44.60;22.50;;;;;;5022295;28;19956;-96
2022/06/27 13:45:39;;;;;;;;;;;45.00;23.30;;;;;;5018895;28;19964;-96
2022/06/27 13:48:21;;;;;;;;;;;45.00;22.30;;;;;;5006068;28;19929;-96
2022/06/27 13:56:35;;;;;;;;;;;46.10;22.40;;;;;;5039022;23;19955;-96
2022/06/27 13:59:02;;;;;;;;;;;45.40;22.60;;;;;;5005911;28;20290;-96
2022/06/27 14:01:28;;;;;;;;;;;45.10;22.70;;;;;;5021277;28;20000;-96
2022/06/27 14:03:54;;;;;;;;;;;44.60;23.60;;;;;;5282442;23;19976;-96
2022/06/27 14:09:04;;;;;;;;;;;44.10;23.40;;;;;;5015027;28;19943;-96
2022/06/27 14:11:29;;;;;;;;;;;43.80;24.00;;;;;;5023487;28;19944;-96
2022/06/27 14:13:55;;;;;;;;;;;43.50;24.00;;;;;;5015532;28;19965;-96
2022/06/27 14:16:23;;;;;;;;;;;42.60;25.30;;;;;;5015448;28;19939;-96
2022/06/27 14:18:49;;;;;;;;;;;42.80;24.80;;;;;;5016479;28;20019;-96
2022/06/27 14:21:15;;;;;;;;;;;43.20;25.70;;;;;;5000121;28;20045;-96
2022/06/27 14:23:40;;;;;;;;;;;43.70;24.10;;;;;;5400541;23;19965;-96
2022/06/27 14:26:06;;;;;;;;;;;43.80;25.50;;;;;;5028537;28;20440;-96
2022/06/27 14:28:32;;;;;;;;;;;44.20;25.10;;;;;;5019720;28;19989;-96
2022/06/27 14:30:58;;;;;;;;;;;44.40;25.10;;;;;;5035627;28;20406;-96
2022/06/27 14:33:24;;;;;;;;;;;44.70;23.00;;;;;;5017174;28;20065;-96
2022/06/27 14:35:54;;;;;;;;;;;44.90;23.70;;;;;;5040187;28;19974;-96
2022/06/27 14:38:20;;;;;;;;;;;45.10;23.40;;;;;;5031382;28;19956;-96
2022/06/27 14:40:47;;;;;;;;;;;45.20;23.10;;;;;;5047973;28;19940;-96
2022/06/27 14:43:13;;;;;;;;;;;44.90;22.80;;;;;;5026840;28;19969;-96
2022/06/27 14:45:39;;;;;;;;;;;44.10;23.90;;;;;;5018292;28;20013;-96
2022/06/27 14:48:05;;;;;;;;;;;43.90;24.60;;;;;;5022884;28;20033;-96
2022/06/27 14:50:30;;;;;;;;;;;43.40;25.00;;;;;;5040705;28;19951;-96
2022/06/27 14:52:56;;;;;;;;;;;43.10;25.10;;;;;;5042647;28;19944;-96
2022/06/27 14:55:22;;;;;;;;;;;43.30;25.60;;;;;;5042846;28;19942;-96
2022/06/27 14:57:47;;;;;;;;;;;43.40;26.20;;;;;;5042415;28;19982;-96
2022/06/27 15:00:13;;;;;;;;;;;43.40;25.70;;;;;;5040241;28;19940;-96
2022/06/27 15:02:40;;;;;;;;;;;43.30;25.30;;;;;;5040571;28;20314;-96
2022/06/27 15:05:09;;;;;;;;;;;43.10;25.80;;;;;;5038047;28;19959;-96
2022/06/27 15:07:37;;;;;;;;;;;43.10;26.40;;;;;;5039779;28;20030;-96
2022/06/27 15:10:03;;;;;;;;;;;43.20;25.60;;;;;;5041165;28;19937;-96
2022/06/27 15:12:29;;;;;;;;;;;43.40;26.20;;;;;;5023018;28;19968;-96
2022/06/27 15:14:55;;;;;;;;;;;43.40;25.60;;;;;;5023031;28;19973;-96
2022/06/27 15:17:22;;;;;;;;;;;43.40;25.80;;;;;;5043763;28;19948;-93
2022/06/27 15:19:47;;;;;;;;;;;43.70;25.80;;;;;;5040300;28;19942;-93
2022/06/27 15:22:13;;;;;;;;;;;43.80;25.80;;;;;;5040389;28;19948;-94
2022/06/27 15:24:39;;;;;;;;;;;43.90;25.70;;;;;;5040103;28;19977;-94
2022/06/27 15:27:05;;;;;;;;;;;43.60;26.70;;;;;;5039965;28;20031;-94
2022/06/27 15:29:30;;;;;;;;;;;43.40;25.90;;;;;;5021640;28;19950;-94
2022/06/27 15:31:56;;;;;;;;;;;43.50;25.50;;;;;;5039880;28;19945;-94
2022/06/27 15:34:22;;;;;;;;;;;43.20;26.50;;;;;;5040204;28;20052;-94
2022/06/27 15:36:50;;;;;;;;;;;42.50;26.50;;;;;;5039972;28;20477;-95
2022/06/27 15:39:16;;;;;;;;;;;41.60;26.80;;;;;;5036733;28;19950;-93
2022/06/27 15:41:42;;;;;;;;;;;41.40;27.70;;;;;;5032981;28;19946;-94
2022/06/27 15:44:08;;;;;;;;;;;41.20;28.50;;;;;;5039428;28;20068;-93
2022/06/27 15:46:34;;;;;;;;;;;40.30;28.90;;;;;;5024929;28;20084;-94
2022/06/27 15:48:59;;;;;;;;;;;39.80;30.10;;;;;;5037596;28;20078;-94
2022/06/27 15:51:25;;;;;;;;;;;39.20;31.00;;;;;;5039021;28;19976;-94
2022/06/27 15:53:51;;;;;;;;;;;38.90;31.20;;;;;;5038808;28;19961;-94
2022/06/27 15:56:16;;;;;;;;;;;38.70;31.50;;;;;;5038768;28;19941;-93
2022/06/27 15:58:42;;;;;;;;;;;38.60;30.90;;;;;;5038617;28;19948;-93
2022/06/27 16:01:08;;;;;;;;;;;38.60;31.30;;;;;;5029003;28;20010;-93
2022/06/27 16:03:34;;;;;;;;;;;38.60;32.30;;;;;;5016450;28;19981;-93
2022/06/27 16:06:01;;;;;;;;;;;38.00;31.40;;;;;;5034246;28;20015;-93
2022/06/27 16:08:27;;;;;;;;;;;38.00;31.70;;;;;;5029954;28;20182;-93
2022/06/27 16:10:52;;;;;;;;;;;37.90;32.30;;;;;;5034830;28;19948;-93
2022/06/27 16:13:20;;;;;;;;;;;37.90;32.80;;;;;;5033056;28;20362;-93
2022/06/27 16:15:45;;;;;;;;;;;37.80;32.50;;;;;;5014715;28;19945;-93
2022/06/27 16:18:11;;;;;;;;;;;37.30;32.90;;;;;;5014489;28;20029;-92
2022/06/27 16:20:38;;;;;;;;;;;36.70;33.90;;;;;;5029381;28;20420;-93
2022/06/27 16:23:04;;;;;;;;;;;36.50;34.10;;;;;;5022272;28;19972;-93
2022/06/27 16:25:30;;;;;;;;;;;36.30;34.30;;;;;;5023908;28;19974;-92
2022/06/27 16:27:56;;;;;;;;;;;36.30;35.30;;;;;;5017407;28;20316;-93
2022/06/27 16:33:27;;;;;;;;;;;36.30;34.70;;;;;;4967614;28;20431;-92
2022/06/27 16:35:53;;;;;;;;;;;35.80;35.90;;;;;;4973220;28;20000;-93
2022/06/27 16:38:18;;;;;;;;;;;35.90;36.20;;;;;;4989060;28;19982;-93
2022/06/27 16:40:44;;;;;;;;;;;35.90;36.00;;;;;;4986349;28;20386;-93
2022/06/27 16:43:15;;;;;;;;;;;35.80;37.40;;;;;;5014063;28;19945;-93